createdAt,value
2023-02-06T00:01:56.227Z,4.02
2023-02-06T00:04:25.990Z,3.94
2023-02-06T00:06:55.751Z,3.97
2023-02-06T00:09:25.512Z,4.07
2023-02-06T00:11:55.321Z,3.98
2023-02-06T00:14:25.228Z,4.07
2023-02-06T00:16:54.998Z,4.00
2023-02-06T00:19:24.803Z,4.07
2023-02-06T00:21:56.467Z,3.70
2023-02-06T00:24:26.553Z,3.71
2023-02-06T00:26:57.012Z,3.71
2023-02-06T00:29:26.855Z,3.82
2023-02-06T00:31:57.004Z,3.65
2023-02-06T00:34:26.626Z,3.69
2023-02-06T00:36:56.677Z,3.69
2023-02-06T00:39:27.562Z,3.80
2023-02-06T00:41:57.331Z,3.83
2023-02-06T00:44:26.828Z,3.69
2023-02-06T00:46:58.388Z,3.70
2023-02-06T00:49:28.110Z,3.72
2023-02-06T00:51:57.592Z,3.71
2023-02-06T00:54:27.234Z,3.72
2023-02-06T00:56:57.047Z,3.68
2023-02-06T00:59:26.888Z,3.59
2023-02-06T01:01:56.838Z,3.82
2023-02-06T01:04:26.363Z,3.83
2023-02-06T01:06:57.611Z,3.83
2023-02-06T01:09:27.116Z,3.74
2023-02-06T01:11:58.840Z,3.88
2023-02-06T01:14:28.647Z,3.78
2023-02-06T01:16:58.482Z,3.77
2023-02-06T01:19:28.274Z,3.58
2023-02-06T01:21:58.920Z,3.59
2023-02-06T01:24:28.736Z,3.53
2023-02-06T01:26:58.577Z,3.65
2023-02-06T01:29:28.435Z,3.62
2023-02-06T01:31:58.189Z,3.41
2023-02-06T01:34:27.940Z,3.56
2023-02-06T01:36:57.732Z,3.47
2023-02-06T01:39:28.165Z,3.44
2023-02-06T01:41:59.747Z,3.61
2023-02-06T01:44:31.091Z,3.66
2023-02-06T01:47:01.358Z,3.67
2023-02-06T01:49:43.064Z,3.59
2023-02-06T01:52:25.043Z,3.69
2023-02-06T01:54:57.857Z,3.86
2023-02-06T01:57:28.301Z,3.93
2023-02-06T02:00:04.138Z,3.78
2023-02-06T02:02:38.005Z,3.90
2023-02-06T02:05:10.689Z,3.90
2023-02-06T02:07:46.265Z,3.78
2023-02-06T02:10:16.808Z,3.93
2023-02-06T02:12:46.800Z,3.94
2023-02-06T02:15:16.608Z,3.99
2023-02-06T02:17:52.456Z,4.05
2023-02-06T02:20:45.435Z,3.87
2023-02-06T02:23:24.126Z,4.08
2023-02-06T02:26:19.033Z,3.99
2023-02-06T02:29:21.232Z,4.23
2023-02-06T02:32:17.670Z,4.06
2023-02-06T02:35:05.274Z,4.11
2023-02-06T02:37:48.149Z,3.81
2023-02-06T02:40:29.810Z,3.85
2023-02-06T02:43:08.191Z,3.78
2023-02-06T02:45:47.754Z,4.24
2023-02-06T02:48:23.176Z,4.24
2023-02-06T02:50:55.089Z,4.11
2023-02-06T02:53:24.996Z,4.08
2023-02-06T02:55:56.148Z,4.31
2023-02-06T02:58:29.103Z,4.11
2023-02-06T03:01:02.232Z,4.12
2023-02-06T03:03:34.990Z,4.04
2023-02-06T03:06:35.885Z,4.16
2023-02-06T03:09:37.513Z,4.05
2023-02-06T03:12:14.378Z,4.18
2023-02-06T03:14:53.015Z,4.17
2023-02-06T03:17:25.887Z,4.18
2023-02-06T03:19:58.377Z,4.18
2023-02-06T03:22:30.397Z,4.35
2023-02-06T03:25:02.391Z,4.14
2023-02-06T03:27:33.482Z,4.19
2023-02-06T03:30:07.167Z,4.05
2023-02-06T03:32:39.964Z,4.05
2023-02-06T03:35:12.822Z,4.09
2023-02-06T03:37:42.731Z,4.06
2023-02-06T03:40:13.414Z,4.08
2023-02-06T03:42:46.203Z,4.08
2023-02-06T03:45:31.051Z,3.89
2023-02-06T03:48:09.591Z,4.10
2023-02-06T03:50:42.411Z,4.00
2023-02-06T03:53:13.308Z,3.94
2023-02-06T03:55:45.815Z,3.83
2023-02-06T03:58:15.809Z,3.83
2023-02-06T04:00:47.379Z,3.88
2023-02-06T04:03:19.939Z,3.85
2023-02-06T04:05:50.306Z,3.78
2023-02-06T04:08:20.119Z,3.78
2023-02-06T04:10:50.366Z,3.72
2023-02-06T04:13:20.121Z,3.72
2023-02-06T04:15:49.932Z,3.55
2023-02-06T04:18:19.793Z,3.42
2023-02-06T04:20:51.657Z,3.50
2023-02-06T04:23:21.490Z,3.49
2023-02-06T04:25:51.253Z,3.01
2023-02-06T04:28:22.531Z,3.01
2023-02-06T04:30:52.751Z,3.15
2023-02-06T04:33:22.545Z,3.42
2023-02-06T04:35:52.497Z,3.42
2023-02-06T04:38:21.960Z,3.38
2023-02-06T04:40:51.782Z,3.50
2023-02-06T04:43:21.328Z,3.30
2023-02-06T04:45:51.106Z,3.37
2023-02-06T04:48:20.922Z,3.69
2023-02-06T04:50:53.802Z,3.67
2023-02-06T04:53:23.630Z,3.24
2023-02-06T04:55:55.032Z,3.20
2023-02-06T04:58:24.563Z,3.22
2023-02-06T05:00:54.368Z,3.31
2023-02-06T05:03:25.284Z,3.36
2023-02-06T05:05:55.043Z,3.38
2023-02-06T05:08:25.171Z,3.58
2023-02-06T05:10:55.684Z,3.32
2023-02-06T05:13:25.841Z,3.13
2023-02-06T05:15:57.376Z,3.15
2023-02-06T05:18:27.317Z,3.16
2023-02-06T05:20:57.065Z,3.17
2023-02-06T05:23:26.994Z,3.13
2023-02-06T05:25:56.892Z,3.26
2023-02-06T05:28:27.363Z,3.26
2023-02-06T05:31:02.763Z,3.16
2023-02-06T05:33:34.603Z,3.07
2023-02-06T05:36:08.169Z,3.10
2023-02-06T05:38:37.999Z,3.15
2023-02-06T05:41:10.405Z,3.00
2023-02-06T05:43:40.272Z,3.08
2023-02-06T05:46:11.450Z,3.11
2023-02-06T05:48:41.766Z,3.14
2023-02-06T05:51:11.561Z,3.06
2023-02-06T05:53:41.308Z,2.88
2023-02-06T05:56:11.811Z,2.74
2023-02-06T05:58:41.657Z,2.71
2023-02-06T06:01:13.333Z,2.72
2023-02-06T06:03:43.201Z,2.69
2023-02-06T06:06:13.291Z,2.73
2023-02-06T06:08:43.061Z,2.83
2023-02-06T06:11:12.514Z,2.83
2023-02-06T06:13:42.301Z,2.59
2023-02-06T06:16:12.047Z,2.46
2023-02-06T06:18:41.953Z,2.67
2023-02-06T06:21:11.719Z,2.73
2023-02-06T06:23:41.254Z,2.58
2023-02-06T06:26:11.583Z,2.42
2023-02-06T06:28:41.634Z,2.56
2023-02-06T06:31:12.406Z,2.85
2023-02-06T06:33:42.488Z,3.00
2023-02-06T06:36:14.503Z,2.71
2023-02-06T06:38:44.419Z,2.62
2023-02-06T06:41:14.252Z,2.67
2023-02-06T06:43:44.095Z,2.74
2023-02-06T06:46:15.209Z,2.94
2023-02-06T06:48:44.982Z,2.77
2023-02-06T06:51:14.530Z,2.98
2023-02-06T06:53:44.278Z,2.96
2023-02-06T06:56:15.648Z,2.83
2023-02-06T06:58:45.420Z,2.94
2023-02-06T07:01:15.346Z,2.79
2023-02-06T07:03:47.016Z,2.69
2023-02-06T07:06:19.598Z,2.69
2023-02-06T07:08:49.153Z,2.99
2023-02-06T07:11:19.551Z,3.32
2023-02-06T07:13:49.690Z,2.99
2023-02-06T07:16:19.383Z,2.93
2023-02-06T07:18:49.157Z,3.17
2023-02-06T07:21:19.925Z,3.14
2023-02-06T07:23:49.722Z,3.38
2023-02-06T07:26:19.314Z,3.37
2023-02-06T07:28:49.779Z,3.33
2023-02-06T07:31:19.613Z,3.35
2023-02-06T07:33:49.504Z,3.53
2023-02-06T07:36:19.335Z,3.67
2023-02-06T07:38:49.089Z,3.63
2023-02-06T07:41:19.204Z,3.67
2023-02-06T07:43:48.963Z,3.62
2023-02-06T07:46:18.765Z,3.59
2023-02-06T07:48:48.608Z,3.79
2023-02-06T07:51:18.527Z,3.68
2023-02-06T07:53:49.619Z,4.08
2023-02-06T07:56:22.660Z,4.11
2023-02-06T07:58:53.985Z,4.07
2023-02-06T08:01:24.593Z,3.85
2023-02-06T08:03:55.668Z,4.18
2023-02-06T08:06:26.312Z,4.18
2023-02-06T08:08:57.119Z,4.03
2023-02-06T08:11:29.011Z,4.34
2023-02-06T08:13:59.095Z,4.16
2023-02-06T08:16:28.990Z,4.25
2023-02-06T08:18:58.787Z,4.73
2023-02-06T08:21:28.944Z,4.74
2023-02-06T08:24:01.745Z,4.59
2023-02-06T08:26:33.311Z,4.73
2023-02-06T08:29:05.614Z,4.77
2023-02-06T08:31:38.795Z,4.80
2023-02-06T08:34:14.064Z,4.77
2023-02-06T08:36:44.178Z,5.07
2023-02-06T08:39:15.366Z,4.91
2023-02-06T08:41:45.686Z,5.01
2023-02-06T08:44:17.582Z,5.17
2023-02-06T08:46:52.348Z,5.39
2023-02-06T08:49:22.453Z,5.44
2023-02-06T08:51:52.247Z,5.36
2023-02-06T08:54:24.298Z,5.36
2023-02-06T08:56:55.851Z,5.31
2023-02-06T08:59:25.646Z,5.46
2023-02-06T09:01:55.557Z,5.56
2023-02-06T09:04:25.343Z,5.59
2023-02-06T09:06:55.163Z,5.55
2023-02-06T09:09:25.100Z,5.70
2023-02-06T09:11:56.213Z,5.78
2023-02-06T09:14:26.009Z,5.87
2023-02-06T09:16:57.577Z,5.97
2023-02-06T09:19:27.654Z,5.99
2023-02-06T09:21:57.566Z,6.24
2023-02-06T09:24:28.764Z,6.14
2023-02-06T09:27:00.506Z,6.01
2023-02-06T09:29:32.893Z,6.21
2023-02-06T09:32:02.798Z,5.83
2023-02-06T09:34:32.563Z,6.41
2023-02-06T09:37:06.422Z,6.42
2023-02-06T09:39:36.252Z,6.40
2023-02-06T09:42:13.577Z,6.60
2023-02-06T09:44:53.416Z,6.74
2023-02-06T09:47:32.090Z,7.05
2023-02-06T09:50:13.799Z,7.05
2023-02-06T09:52:47.672Z,6.97
2023-02-06T09:55:23.450Z,7.46
2023-02-06T09:57:53.721Z,7.56
2023-02-06T10:00:37.837Z,7.96
2023-02-06T10:03:16.419Z,7.96
2023-02-06T10:06:09.441Z,8.00
2023-02-06T10:08:42.282Z,7.87
2023-02-06T10:11:23.841Z,8.20
2023-02-06T10:14:01.977Z,8.47
2023-02-06T10:16:49.776Z,8.51
2023-02-06T10:19:25.376Z,8.78
2023-02-06T10:22:00.624Z,8.33
2023-02-06T10:24:33.390Z,8.24
2023-02-06T10:27:06.434Z,8.59
2023-02-06T10:29:36.938Z,8.59
2023-02-06T10:32:32.288Z,8.59
2023-02-06T10:35:27.252Z,8.30
2023-02-06T10:38:15.146Z,8.30
2023-02-06T10:40:56.453Z,8.56
2023-02-06T10:43:41.127Z,8.93
2023-02-06T10:46:30.355Z,9.14
2023-02-06T10:49:14.813Z,9.30
2023-02-06T10:51:49.002Z,9.06
2023-02-06T10:54:27.123Z,9.45
2023-02-06T10:56:59.413Z,9.43
2023-02-06T10:59:37.985Z,9.44
2023-02-06T11:02:12.976Z,9.14
2023-02-06T11:04:45.762Z,9.15
2023-02-06T11:07:27.946Z,8.94
2023-02-06T11:09:58.049Z,8.89
2023-02-06T11:12:51.117Z,9.02
2023-02-06T11:15:41.596Z,9.11
2023-02-06T11:18:15.142Z,9.57
2023-02-06T11:20:47.098Z,9.49
2023-02-06T11:23:25.659Z,9.44
2023-02-06T11:26:16.400Z,9.44
2023-02-06T11:28:58.306Z,9.13
2023-02-06T11:31:45.894Z,9.24
2023-02-06T11:34:27.704Z,9.19
2023-02-06T11:37:05.629Z,9.46
2023-02-06T11:39:40.065Z,9.61
2023-02-06T11:42:23.637Z,9.44
2023-02-06T11:44:53.750Z,9.09
2023-02-06T11:47:38.227Z,9.09
2023-02-06T11:50:18.347Z,9.12
2023-02-06T11:52:48.764Z,9.27
2023-02-06T11:55:30.176Z,9.27
2023-02-06T11:58:06.144Z,9.55
2023-02-06T12:00:37.926Z,9.89
2023-02-06T12:03:27.167Z,9.77
2023-02-06T12:06:00.392Z,9.49
2023-02-06T12:08:36.387Z,9.08
2023-02-06T12:11:09.963Z,9.27
2023-02-06T12:13:43.430Z,9.51
2023-02-06T12:16:15.579Z,9.93
2023-02-06T12:18:48.610Z,10.09
2023-02-06T12:21:27.367Z,10.82
2023-02-06T12:24:02.973Z,10.40
2023-02-06T12:26:37.371Z,9.95
2023-02-06T12:29:25.297Z,10.09
2023-02-06T12:32:05.381Z,9.67
2023-02-06T12:34:51.739Z,9.86
2023-02-06T12:37:26.285Z,10.19
2023-02-06T12:39:56.139Z,10.28
2023-02-06T12:42:40.332Z,9.86
2023-02-06T12:45:31.631Z,9.57
2023-02-06T12:48:04.420Z,10.20
2023-02-06T12:50:37.013Z,9.62
2023-02-06T12:53:21.438Z,9.56
2023-02-06T12:56:00.783Z,9.56
2023-02-06T12:58:36.230Z,9.74
2023-02-06T13:01:29.389Z,9.73
2023-02-06T13:03:55.753Z,9.73
2023-02-06T13:06:31.452Z,9.91
2023-02-06T13:09:04.577Z,9.54
2023-02-06T13:11:40.685Z,9.57
2023-02-06T13:14:30.039Z,9.59
2023-02-06T13:17:09.705Z,9.66
2023-02-06T13:19:42.537Z,9.60
2023-02-06T13:22:16.811Z,9.71
2023-02-06T13:24:48.518Z,9.71
2023-02-06T13:27:19.779Z,9.44
2023-02-06T13:29:51.616Z,9.82
2023-02-06T13:32:27.042Z,10.05
2023-02-06T13:35:08.450Z,10.55
2023-02-06T13:37:47.873Z,10.75
2023-02-06T13:40:30.995Z,10.68
2023-02-06T13:43:13.868Z,11.04
2023-02-06T13:45:51.849Z,11.48
2023-02-06T13:48:52.607Z,11.27
2023-02-06T13:51:41.741Z,10.88
2023-02-06T13:54:42.704Z,10.82
2023-02-06T13:57:21.575Z,10.81
2023-02-06T13:59:57.296Z,10.70
2023-02-06T14:02:39.129Z,10.58
2023-02-06T14:05:18.218Z,10.33
2023-02-06T14:08:10.120Z,10.41
2023-02-06T14:11:17.727Z,10.38
2023-02-06T14:13:53.156Z,10.32
2023-02-06T14:16:34.573Z,10.19
2023-02-06T14:19:07.210Z,10.35
2023-02-06T14:21:40.068Z,10.13
2023-02-06T14:24:30.067Z,10.30
2023-02-06T14:27:05.581Z,9.91
2023-02-06T14:29:49.779Z,10.23
2023-02-06T14:32:34.126Z,10.00
2023-02-06T14:35:33.692Z,10.19
2023-02-06T14:38:31.405Z,10.26
2023-02-06T14:41:02.987Z,10.13
2023-02-06T14:43:35.993Z,10.02
2023-02-06T14:46:09.987Z,9.80
2023-02-06T14:48:42.951Z,9.64
2023-02-06T14:51:24.770Z,9.65
2023-02-06T14:53:58.166Z,9.57
2023-02-06T14:56:33.468Z,9.56
2023-02-06T14:59:16.015Z,9.63
2023-02-06T15:01:49.001Z,9.55
2023-02-06T15:04:22.077Z,9.51
2023-02-06T15:06:57.295Z,9.52
2023-02-06T15:09:36.318Z,9.36
2023-02-06T15:12:24.297Z,9.02
2023-02-06T15:14:56.960Z,9.34
2023-02-06T15:17:27.274Z,9.34
2023-02-06T15:19:56.995Z,9.66
2023-02-06T15:22:31.681Z,10.04
2023-02-06T15:25:10.138Z,10.17
2023-02-06T15:27:40.500Z,9.84
2023-02-06T15:30:20.056Z,9.76
2023-02-06T15:32:52.890Z,9.71
2023-02-06T15:35:28.274Z,9.63
2023-02-06T15:37:59.309Z,9.47
2023-02-06T15:40:32.354Z,9.67
2023-02-06T15:43:04.255Z,9.67
2023-02-06T15:45:39.085Z,9.37
2023-02-06T15:48:26.344Z,9.37
2023-02-06T15:51:10.887Z,9.36
2023-02-06T15:53:42.789Z,9.41
2023-02-06T15:56:24.486Z,9.16
2023-02-06T15:59:00.254Z,9.03
2023-02-06T16:01:32.566Z,9.08
2023-02-06T16:04:08.469Z,9.03
2023-02-06T16:06:38.213Z,9.12
2023-02-06T16:09:08.419Z,9.06
2023-02-06T16:11:51.325Z,8.97
2023-02-06T16:14:32.859Z,8.81
2023-02-06T16:17:17.289Z,8.77
2023-02-06T16:19:57.391Z,8.77
2023-02-06T16:22:33.058Z,8.72
2023-02-06T16:25:24.687Z,8.43
2023-02-06T16:27:54.740Z,8.68
2023-02-06T16:30:35.464Z,8.51
2023-02-06T16:33:14.765Z,8.47
2023-02-06T16:35:44.815Z,8.45
2023-02-06T16:38:14.680Z,8.39
2023-02-06T16:40:44.602Z,8.16
2023-02-06T16:43:14.427Z,7.93
2023-02-06T16:45:44.211Z,7.53
2023-02-06T16:48:17.272Z,7.63
2023-02-06T16:50:49.284Z,7.63
2023-02-06T16:53:22.147Z,7.37
2023-02-06T16:55:52.564Z,7.09
2023-02-06T16:58:24.689Z,7.22
2023-02-06T17:00:54.541Z,7.03
2023-02-06T17:03:25.320Z,6.93
2023-02-06T17:05:55.064Z,6.76
2023-02-06T17:08:25.785Z,6.63
2023-02-06T17:10:55.556Z,6.77
2023-02-06T17:13:25.794Z,6.61
2023-02-06T17:15:55.626Z,6.54
2023-02-06T17:18:25.666Z,6.17
2023-02-06T17:20:56.468Z,6.37
2023-02-06T17:23:26.212Z,6.36
2023-02-06T17:25:55.975Z,6.28
2023-02-06T17:28:25.730Z,6.26
2023-02-06T17:30:55.598Z,6.10
2023-02-06T17:33:25.410Z,6.18
2023-02-06T17:35:55.290Z,6.10
2023-02-06T17:38:25.035Z,6.06
2023-02-06T17:40:55.664Z,5.98
2023-02-06T17:43:25.543Z,5.96
2023-02-06T17:45:55.295Z,5.93
2023-02-06T17:48:25.009Z,5.85
2023-02-06T17:50:55.181Z,5.76
2023-02-06T17:53:25.237Z,5.73
2023-02-06T17:55:55.017Z,5.88
2023-02-06T17:58:24.826Z,5.70
2023-02-06T18:00:54.625Z,5.53
2023-02-06T18:03:24.604Z,5.49
2023-02-06T18:06:01.691Z,5.58
2023-02-06T18:08:31.632Z,5.57
2023-02-06T18:11:03.038Z,5.35
2023-02-06T18:13:32.862Z,5.17
2023-02-06T18:16:02.456Z,5.22
2023-02-06T18:18:32.376Z,5.27
2023-02-06T18:21:02.415Z,5.35
2023-02-06T18:23:32.551Z,5.24
2023-02-06T18:26:04.146Z,5.07
2023-02-06T18:28:34.854Z,4.95
2023-02-06T18:31:05.331Z,5.04
2023-02-06T18:33:35.998Z,5.01
2023-02-06T18:36:07.164Z,4.95
2023-02-06T18:38:37.136Z,5.10
2023-02-06T18:41:09.518Z,4.91
2023-02-06T18:43:39.478Z,4.79
2023-02-06T18:46:11.160Z,4.73
2023-02-06T18:48:41.265Z,4.83
2023-02-06T18:51:11.082Z,4.63
2023-02-06T18:53:40.892Z,4.79
2023-02-06T18:56:12.661Z,4.56
2023-02-06T18:58:42.479Z,4.43
2023-02-06T19:01:21.057Z,4.43
2023-02-06T19:03:52.554Z,4.59
2023-02-06T19:06:32.108Z,4.53
2023-02-06T19:09:02.511Z,4.45
2023-02-06T19:11:32.245Z,4.42
2023-02-06T19:14:02.018Z,4.42
2023-02-06T19:16:32.647Z,4.51
2023-02-06T19:19:02.558Z,4.40
2023-02-06T19:21:32.381Z,4.31
2023-02-06T19:24:02.558Z,4.23
2023-02-06T19:26:33.715Z,4.30
2023-02-06T19:29:03.665Z,4.16
2023-02-06T19:31:37.950Z,4.09
2023-02-06T19:34:09.224Z,4.11
2023-02-06T19:36:38.984Z,4.06
2023-02-06T19:39:11.163Z,4.01
2023-02-06T19:41:40.949Z,3.93
2023-02-06T19:44:14.501Z,4.09
2023-02-06T19:46:44.303Z,4.03
2023-02-06T19:49:14.248Z,3.93
2023-02-06T19:51:46.088Z,3.81
2023-02-06T19:54:16.219Z,3.65
2023-02-06T19:56:48.743Z,3.75
2023-02-06T19:59:24.215Z,3.78
2023-02-06T20:01:56.401Z,3.56
2023-02-06T20:04:29.699Z,3.41
2023-02-06T20:06:59.793Z,3.32
2023-02-06T20:09:30.661Z,3.32
2023-02-06T20:12:00.958Z,3.38
2023-02-06T20:14:30.605Z,3.44
2023-02-06T20:17:00.555Z,3.35
2023-02-06T20:19:31.179Z,3.36
2023-02-06T20:22:04.026Z,3.39
2023-02-06T20:24:34.674Z,3.39
2023-02-06T20:27:07.540Z,3.35
2023-02-06T20:29:39.789Z,3.39
2023-02-06T20:32:11.052Z,3.38
2023-02-06T20:34:41.150Z,3.42
2023-02-06T20:37:11.061Z,3.42
2023-02-06T20:39:41.203Z,3.44
2023-02-06T20:42:11.957Z,3.44
2023-02-06T20:44:42.008Z,3.24
2023-02-06T20:47:11.992Z,3.41
2023-02-06T20:49:41.978Z,3.06
2023-02-06T20:52:11.873Z,3.32
2023-02-06T20:54:41.990Z,3.35
2023-02-06T20:57:11.740Z,3.36
2023-02-06T20:59:41.607Z,3.13
2023-02-06T21:02:13.839Z,3.19
2023-02-06T21:04:43.717Z,3.08
2023-02-06T21:07:13.727Z,3.26
2023-02-06T21:09:44.188Z,3.07
2023-02-06T21:12:15.387Z,3.08
2023-02-06T21:14:45.625Z,3.03
2023-02-06T21:17:15.216Z,3.03
2023-02-06T21:19:45.306Z,3.19
2023-02-06T21:22:15.212Z,3.03
2023-02-06T21:24:45.060Z,3.05
2023-02-06T21:27:14.837Z,3.05
2023-02-06T21:29:44.889Z,3.09
2023-02-06T21:32:16.920Z,3.17
2023-02-06T21:34:46.326Z,3.29
2023-02-06T21:37:16.103Z,3.15
2023-02-06T21:39:46.029Z,3.05
2023-02-06T21:42:15.865Z,3.25
2023-02-06T21:44:45.696Z,3.29
2023-02-06T21:47:15.504Z,3.11
2023-02-06T21:49:46.525Z,3.09
2023-02-06T21:52:16.879Z,3.01
2023-02-06T21:54:46.685Z,2.73
2023-02-06T21:57:16.519Z,2.73
2023-02-06T21:59:46.568Z,2.81
2023-02-06T22:02:16.073Z,2.83
2023-02-06T22:04:46.354Z,2.87
2023-02-06T22:07:16.384Z,2.68
2023-02-06T22:09:46.092Z,2.83
2023-02-06T22:12:15.772Z,2.60
2023-02-06T22:14:45.605Z,2.72
2023-02-06T22:17:15.363Z,2.77
2023-02-06T22:19:45.174Z,2.66
2023-02-06T22:22:15.274Z,2.64
2023-02-06T22:24:45.414Z,2.81
2023-02-06T22:27:15.247Z,2.85
2023-02-06T22:29:45.410Z,2.93
2023-02-06T22:32:16.798Z,2.93
2023-02-06T22:34:46.616Z,2.79
2023-02-06T22:37:16.493Z,2.59
2023-02-06T22:39:46.341Z,2.60
2023-02-06T22:42:17.076Z,2.63
2023-02-06T22:44:47.191Z,2.44
2023-02-06T22:47:17.411Z,2.45
2023-02-06T22:49:47.313Z,2.45
2023-02-06T22:52:34.922Z,2.49
2023-02-06T22:55:05.698Z,2.43
2023-02-06T22:57:37.187Z,2.38
2023-02-06T23:00:10.847Z,2.44
2023-02-06T23:02:40.713Z,2.45
2023-02-06T23:05:10.640Z,2.31
2023-02-06T23:07:40.714Z,2.38
2023-02-06T23:10:12.434Z,2.27
2023-02-06T23:12:42.549Z,2.39
2023-02-06T23:15:12.334Z,2.36
2023-02-06T23:17:42.086Z,2.32
2023-02-06T23:20:13.314Z,2.23
2023-02-06T23:22:43.066Z,2.17
2023-02-06T23:25:12.507Z,2.14
2023-02-06T23:27:42.314Z,2.09
2023-02-06T23:30:14.260Z,2.04
2023-02-06T23:32:44.117Z,2.09
2023-02-06T23:35:13.624Z,2.12
2023-02-06T23:37:43.409Z,2.16
2023-02-06T23:40:13.111Z,1.99
2023-02-06T23:42:42.880Z,1.98
2023-02-06T23:45:12.720Z,1.94
2023-02-06T23:47:42.744Z,1.75
2023-02-06T23:50:12.399Z,1.68
2023-02-06T23:52:42.699Z,1.90
2023-02-06T23:55:13.833Z,1.84
2023-02-06T23:57:44.216Z,1.92
